createdAt,value
2023-04-27T00:00:01.023Z,99406.94
2023-04-27T00:02:29.502Z,99405.97
2023-04-27T00:04:57.929Z,99402.75
2023-04-27T00:07:26.778Z,99405.16
2023-04-27T00:09:54.622Z,99406.75
2023-04-27T00:12:22.974Z,99407.09
2023-04-27T00:14:51.161Z,99404.75
2023-04-27T00:17:19.056Z,99410.03
2023-04-27T00:19:47.740Z,99406.00
2023-04-27T00:22:16.159Z,99399.87
2023-04-27T00:24:44.307Z,99405.19
2023-04-27T00:27:13.749Z,99405.06
2023-04-27T00:29:43.252Z,99400.44
2023-04-27T00:32:11.548Z,99394.53
2023-04-27T00:34:39.850Z,99410.88
2023-04-27T00:37:07.868Z,99405.91
2023-04-27T00:39:36.418Z,99400.25
2023-04-27T00:42:04.862Z,99406.84
2023-04-27T00:44:32.838Z,99410.25
2023-04-27T00:47:00.773Z,99408.34
2023-04-27T00:49:29.325Z,99402.50
2023-04-27T00:51:58.126Z,99405.63
2023-04-27T00:54:26.277Z,99406.56
2023-04-27T00:56:54.538Z,99405.09
2023-04-27T00:59:22.948Z,99402.81
2023-04-27T01:01:53.400Z,99397.97
2023-04-27T01:04:21.836Z,99398.47
2023-04-27T01:06:49.906Z,99393.38
2023-04-27T01:09:20.047Z,99401.56
2023-04-27T01:11:50.912Z,99398.66
2023-04-27T01:14:18.805Z,99401.84
2023-04-27T01:16:47.323Z,99404.97
2023-04-27T01:19:15.902Z,99405.84
2023-04-27T01:21:44.052Z,99403.59
2023-04-27T01:24:12.080Z,99413.47
2023-04-27T01:26:40.323Z,99406.03
2023-04-27T01:29:08.371Z,99411.09
2023-04-27T01:31:36.515Z,99402.88
2023-04-27T01:34:05.000Z,99408.16
2023-04-27T01:36:33.091Z,99409.47
2023-04-27T01:39:00.965Z,99411.66
2023-04-27T01:41:29.264Z,99411.97
2023-04-27T01:43:57.165Z,99420.72
2023-04-27T01:46:25.236Z,99428.09
2023-04-27T01:48:53.534Z,99423.75
2023-04-27T01:51:21.614Z,99423.81
2023-04-27T01:53:50.248Z,99420.91
2023-04-27T01:56:18.594Z,99417.78
2023-04-27T01:58:46.492Z,99421.97
2023-04-27T02:01:14.548Z,99425.44
2023-04-27T02:03:42.917Z,99429.37
2023-04-27T02:06:11.166Z,99422.25
2023-04-27T02:08:40.256Z,99427.75
2023-04-27T02:11:09.766Z,99430.03
2023-04-27T02:13:37.809Z,99427.09
2023-04-27T02:16:06.710Z,99436.66
2023-04-27T02:18:35.356Z,99436.03
2023-04-27T02:21:08.944Z,99435.94
2023-04-27T02:23:37.451Z,99434.59
2023-04-27T02:26:06.141Z,99440.94
2023-04-27T02:28:34.065Z,99433.38
2023-04-27T02:31:03.287Z,99437.53
2023-04-27T02:33:31.708Z,99448.44
2023-04-27T02:35:59.632Z,99434.94
2023-04-27T02:38:30.503Z,99444.19
2023-04-27T02:40:58.817Z,99448.34
2023-04-27T02:43:27.277Z,99449.97
2023-04-27T02:45:55.131Z,99452.72
2023-04-27T02:48:23.368Z,99448.34
2023-04-27T02:50:51.255Z,99454.59
2023-04-27T02:53:19.222Z,99449.50
2023-04-27T02:55:51.403Z,99452.84
2023-04-27T02:58:20.144Z,99452.50
2023-04-27T03:00:48.991Z,99455.56
2023-04-27T03:03:17.210Z,99461.19
2023-04-27T03:05:46.672Z,99459.56
2023-04-27T03:08:15.054Z,99463.22
2023-04-27T03:10:42.922Z,99459.94
2023-04-27T03:13:11.144Z,99468.50
2023-04-27T03:15:39.462Z,99474.31
2023-04-27T03:18:07.368Z,99471.75
2023-04-27T03:20:35.241Z,99470.56
2023-04-27T03:23:03.499Z,99473.13
2023-04-27T03:25:31.503Z,99479.97
2023-04-27T03:27:59.608Z,99463.25
2023-04-27T03:30:27.838Z,99476.50
2023-04-27T03:32:56.594Z,99473.31
2023-04-27T03:35:24.960Z,99479.31
2023-04-27T03:37:53.409Z,99483.19
2023-04-27T03:40:21.531Z,99486.53
2023-04-27T03:42:49.396Z,99491.84
2023-04-27T03:45:19.422Z,99493.66
2023-04-27T03:47:47.366Z,99488.94
2023-04-27T03:50:16.503Z,99495.25
2023-04-27T03:52:44.784Z,99495.34
2023-04-27T03:55:12.772Z,99498.16
2023-04-27T03:57:42.013Z,99499.56
2023-04-27T04:00:12.565Z,99496.44
2023-04-27T04:02:40.785Z,99497.97
2023-04-27T04:05:09.621Z,99499.78
2023-04-27T04:07:37.637Z,99496.41
2023-04-27T04:10:06.629Z,99498.97
2023-04-27T04:12:35.183Z,99504.34
2023-04-27T04:15:04.308Z,99509.41
2023-04-27T04:17:34.230Z,99513.50
2023-04-27T04:20:07.287Z,99516.50
2023-04-27T04:22:35.293Z,99517.03
2023-04-27T04:25:04.610Z,99518.78
2023-04-27T04:27:33.700Z,99514.69
2023-04-27T04:30:05.102Z,99519.13
2023-04-27T04:32:34.240Z,99520.00
2023-04-27T04:35:02.631Z,99525.16
2023-04-27T04:37:30.675Z,99522.53
2023-04-27T04:39:58.989Z,99516.53
2023-04-27T04:42:27.754Z,99522.56
2023-04-27T04:44:55.797Z,99522.59
2023-04-27T04:47:24.038Z,99524.31
2023-04-27T04:49:53.223Z,99530.34
2023-04-27T04:52:21.489Z,99532.09
2023-04-27T04:54:53.396Z,99535.53
2023-04-27T04:57:22.463Z,99535.31
2023-04-27T04:59:51.017Z,99536.75
2023-04-27T05:02:19.043Z,99544.97
2023-04-27T05:04:47.222Z,99529.34
2023-04-27T05:07:16.409Z,99529.03
2023-04-27T05:09:46.742Z,99534.41
2023-04-27T05:12:14.764Z,99536.97
2023-04-27T05:14:43.970Z,99538.53
2023-04-27T05:17:12.691Z,99542.16
2023-04-27T05:19:40.758Z,99543.69
2023-04-27T05:22:09.015Z,99540.88
2023-04-27T05:24:37.056Z,99552.63
2023-04-27T05:27:05.328Z,99550.38
2023-04-27T05:29:33.987Z,99552.13
2023-04-27T05:32:02.157Z,99558.03
2023-04-27T05:34:30.067Z,99558.16
2023-04-27T05:36:58.357Z,99543.94
2023-04-27T05:39:26.492Z,99550.47
2023-04-27T05:41:54.438Z,99550.94
2023-04-27T05:44:23.049Z,99557.59
2023-04-27T05:46:51.225Z,99557.41
2023-04-27T05:49:19.100Z,99558.47
2023-04-27T05:51:47.372Z,99565.56
2023-04-27T05:54:15.764Z,99565.31
2023-04-27T05:56:43.722Z,99575.66
2023-04-27T05:59:12.341Z,99579.31
2023-04-27T06:01:40.498Z,99577.84
2023-04-27T06:04:09.124Z,99580.44
2023-04-27T06:06:37.309Z,99576.38
2023-04-27T06:09:05.394Z,99576.03
2023-04-27T06:11:33.693Z,99580.03
2023-04-27T06:14:01.557Z,99578.53
2023-04-27T06:16:29.838Z,99580.59
2023-04-27T06:18:58.404Z,99583.44
2023-04-27T06:21:26.716Z,99584.19
2023-04-27T06:23:54.685Z,99588.63
2023-04-27T06:26:23.110Z,99587.41
2023-04-27T06:28:51.067Z,99580.88
2023-04-27T06:31:19.616Z,99582.06
2023-04-27T06:33:48.388Z,99588.06
2023-04-27T06:36:16.502Z,99583.03
2023-04-27T06:38:44.549Z,99582.06
2023-04-27T06:41:13.209Z,99577.31
2023-04-27T06:43:41.164Z,99578.09
2023-04-27T06:46:09.185Z,99580.50
2023-04-27T06:48:37.587Z,99583.13
2023-04-27T06:51:05.830Z,99595.41
2023-04-27T06:53:34.072Z,99593.56
2023-04-27T06:56:02.714Z,99596.81
2023-04-27T06:58:30.686Z,99603.94
2023-04-27T07:00:58.654Z,99599.97
2023-04-27T07:03:27.102Z,99597.63
2023-04-27T07:05:56.818Z,99603.00
2023-04-27T07:08:24.951Z,99601.34
2023-04-27T07:10:53.444Z,99602.69
2023-04-27T07:13:21.612Z,99603.03
2023-04-27T07:15:55.274Z,99599.28
2023-04-27T07:18:23.954Z,99608.06
2023-04-27T07:20:51.938Z,99607.34
2023-04-27T07:23:20.077Z,99600.66
2023-04-27T07:25:48.413Z,99607.00
2023-04-27T07:28:16.544Z,99612.69
2023-04-27T07:30:44.965Z,99610.03
2023-04-27T07:33:13.544Z,99618.16
2023-04-27T07:35:42.251Z,99613.97
2023-04-27T07:38:10.203Z,99607.91
2023-04-27T07:40:38.626Z,99612.53
2023-04-27T07:43:06.599Z,99610.75
2023-04-27T07:45:34.795Z,99610.69
2023-04-27T07:48:03.377Z,99613.94
2023-04-27T07:50:32.148Z,99616.50
2023-04-27T07:53:00.375Z,99608.28
2023-04-27T07:55:29.169Z,99609.78
2023-04-27T07:57:57.775Z,99616.75
2023-04-27T08:00:27.033Z,99610.84
2023-04-27T08:02:56.191Z,99608.50
2023-04-27T08:05:24.977Z,99605.88
2023-04-27T08:07:54.580Z,99607.72
2023-04-27T08:10:23.882Z,99612.47
2023-04-27T08:12:52.088Z,99613.44
2023-04-27T08:15:22.429Z,99611.75
2023-04-27T08:17:51.609Z,99612.75
2023-04-27T08:20:19.753Z,99619.06
2023-04-27T08:22:47.748Z,99611.87
2023-04-27T08:25:16.086Z,99607.00
2023-04-27T08:27:44.154Z,99616.34
2023-04-27T08:30:12.343Z,99613.37
2023-04-27T08:32:41.272Z,99613.88
2023-04-27T08:35:09.718Z,99616.03
2023-04-27T08:37:37.865Z,99612.91
2023-04-27T08:40:10.115Z,99623.72
2023-04-27T08:42:38.511Z,99624.41
2023-04-27T08:45:08.835Z,99622.38
2023-04-27T08:47:43.368Z,99626.06
2023-04-27T08:50:12.832Z,99610.28
2023-04-27T08:52:40.945Z,99618.91
2023-04-27T08:55:09.426Z,99620.97
2023-04-27T08:57:37.745Z,99609.78
2023-04-27T09:00:13.540Z,99614.13
2023-04-27T09:02:46.609Z,99608.81
2023-04-27T09:05:22.825Z,99610.00
2023-04-27T09:08:02.895Z,99599.06
2023-04-27T09:10:33.870Z,99598.75
2023-04-27T09:13:02.262Z,99592.56
2023-04-27T09:15:30.378Z,99597.13
2023-04-27T09:17:58.941Z,99594.50
2023-04-27T09:20:27.559Z,99594.38
2023-04-27T09:22:58.711Z,99600.19
2023-04-27T09:25:33.715Z,99597.72
2023-04-27T09:28:02.115Z,99591.81
2023-04-27T09:30:30.970Z,99592.81
2023-04-27T09:33:03.899Z,99588.59
2023-04-27T09:35:33.242Z,99589.91
2023-04-27T09:38:01.918Z,99591.53
2023-04-27T09:40:31.597Z,99582.59
2023-04-27T09:43:04.054Z,99577.31
2023-04-27T09:45:34.119Z,99586.12
2023-04-27T09:48:02.963Z,99590.63
2023-04-27T09:50:31.841Z,99590.19
2023-04-27T09:52:59.783Z,99570.84
2023-04-27T09:55:33.293Z,99585.62
2023-04-27T09:58:33.283Z,99590.41
2023-04-27T10:01:24.407Z,99584.94
2023-04-27T10:04:04.748Z,99578.97
2023-04-27T10:07:14.784Z,99571.50
2023-04-27T10:09:43.009Z,99572.91
2023-04-27T10:12:23.939Z,99573.34
2023-04-27T10:14:56.968Z,99564.28
2023-04-27T10:17:33.484Z,99568.53
2023-04-27T10:20:04.166Z,99568.06
2023-04-27T10:22:40.437Z,99565.31
2023-04-27T10:25:15.202Z,99566.69
2023-04-27T10:27:43.219Z,99572.56
2023-04-27T10:30:12.734Z,99569.78
2023-04-27T10:32:54.619Z,99566.44
2023-04-27T10:35:32.747Z,99567.78
2023-04-27T10:38:08.850Z,99561.09
2023-04-27T10:40:38.509Z,99557.53
2023-04-27T10:43:14.422Z,99569.47
2023-04-27T10:45:44.155Z,99578.09
2023-04-27T10:48:17.804Z,99568.00
2023-04-27T10:50:47.036Z,99573.53
2023-04-27T10:53:15.882Z,99562.00
2023-04-27T10:55:43.881Z,99562.75
2023-04-27T10:58:12.479Z,99569.97
2023-04-27T11:00:45.004Z,99572.56
2023-04-27T11:03:24.264Z,99570.19
2023-04-27T11:06:04.421Z,99566.63
2023-04-27T11:08:34.357Z,99566.81
2023-04-27T11:11:02.535Z,99562.75
2023-04-27T11:13:31.152Z,99566.56
2023-04-27T11:16:00.303Z,99558.19
2023-04-27T11:18:31.816Z,99548.94
2023-04-27T11:21:14.294Z,99563.31
2023-04-27T11:23:42.583Z,99554.41
2023-04-27T11:26:11.884Z,99559.78
2023-04-27T11:28:39.813Z,99560.69
2023-04-27T11:31:08.149Z,99552.88
2023-04-27T11:33:36.608Z,99566.87
2023-04-27T11:36:04.709Z,99560.94
2023-04-27T11:38:36.416Z,99562.88
2023-04-27T11:41:07.962Z,99554.84
2023-04-27T11:43:41.122Z,99562.50
2023-04-27T11:46:12.869Z,99561.53
2023-04-27T11:48:41.384Z,99564.44
2023-04-27T11:51:11.354Z,99562.72
2023-04-27T11:53:40.332Z,99555.03
2023-04-27T11:56:11.161Z,99560.13
2023-04-27T11:58:40.119Z,99567.06
2023-04-27T12:01:09.200Z,99555.25
2023-04-27T12:03:38.163Z,99557.63
2023-04-27T12:06:27.575Z,99560.81
2023-04-27T12:08:57.215Z,99561.38
2023-04-27T12:11:28.381Z,99566.06
2023-04-27T12:13:57.644Z,99560.88
2023-04-27T12:16:25.593Z,99556.56
2023-04-27T12:18:53.652Z,99557.94
2023-04-27T12:21:22.452Z,99549.88
2023-04-27T12:23:51.027Z,99548.72
2023-04-27T12:26:18.957Z,99548.47
2023-04-27T12:28:47.314Z,99548.41
2023-04-27T12:31:24.724Z,99548.59
2023-04-27T12:33:54.491Z,99549.16
2023-04-27T12:36:22.437Z,99539.75
2023-04-27T12:38:50.630Z,99540.53
2023-04-27T12:41:18.905Z,99540.22
2023-04-27T12:43:48.677Z,99538.28
2023-04-27T12:46:16.860Z,99537.28
2023-04-27T12:48:45.360Z,99534.84
2023-04-27T12:51:13.548Z,99541.06
2023-04-27T12:53:41.523Z,99541.00
2023-04-27T12:56:09.827Z,99544.41
2023-04-27T12:58:37.731Z,99543.63
2023-04-27T13:01:07.940Z,99543.94
2023-04-27T13:03:36.669Z,99550.66
2023-04-27T13:06:04.839Z,99537.78
2023-04-27T13:08:33.046Z,99539.84
2023-04-27T13:11:01.655Z,99543.81
2023-04-27T13:13:29.720Z,99536.56
2023-04-27T13:15:58.609Z,99537.16
2023-04-27T13:18:26.957Z,99541.19
2023-04-27T13:20:54.786Z,99532.69
2023-04-27T13:23:22.744Z,99536.47
2023-04-27T13:25:51.028Z,99535.66
2023-04-27T13:28:18.931Z,99538.06
2023-04-27T13:30:48.993Z,99539.88
2023-04-27T13:33:23.200Z,99538.31
2023-04-27T13:35:52.101Z,99534.13
2023-04-27T13:38:20.545Z,99532.31
2023-04-27T13:40:48.582Z,99536.28
2023-04-27T13:43:16.529Z,99536.87
2023-04-27T13:45:45.618Z,99538.25
2023-04-27T13:48:13.661Z,99533.16
2023-04-27T13:50:41.625Z,99535.75
2023-04-27T13:53:10.012Z,99531.31
2023-04-27T13:55:38.024Z,99536.87
2023-04-27T13:58:05.983Z,99536.13
2023-04-27T14:00:34.895Z,99537.03
2023-04-27T14:03:05.000Z,99535.25
2023-04-27T14:05:33.185Z,99542.84
2023-04-27T14:08:01.065Z,99536.87
2023-04-27T14:10:29.740Z,99537.59
2023-04-27T14:12:57.712Z,99529.97
2023-04-27T14:15:25.689Z,99532.12
2023-04-27T14:17:54.004Z,99544.97
2023-04-27T14:20:22.005Z,99543.37
2023-04-27T14:22:49.941Z,99539.81
2023-04-27T14:25:18.392Z,99542.25
2023-04-27T14:27:46.411Z,99538.19
2023-04-27T14:30:14.498Z,99541.59
2023-04-27T14:32:42.850Z,99543.72
2023-04-27T14:35:11.079Z,99543.50
2023-04-27T14:37:38.954Z,99547.88
2023-04-27T14:40:08.198Z,99555.59
2023-04-27T14:42:36.408Z,99556.09
2023-04-27T14:45:04.682Z,99551.87
2023-04-27T14:47:33.017Z,99548.34
2023-04-27T14:50:00.998Z,99555.69
2023-04-27T14:52:29.279Z,99553.53
2023-04-27T14:54:57.543Z,99550.97
2023-04-27T14:57:25.428Z,99542.22
2023-04-27T14:59:53.381Z,99543.72
2023-04-27T15:02:21.672Z,99549.94
2023-04-27T15:04:49.693Z,99553.19
2023-04-27T15:07:17.761Z,99556.38
2023-04-27T15:09:46.335Z,99551.69
2023-04-27T15:12:14.349Z,99556.22
2023-04-27T15:14:42.517Z,99553.41
2023-04-27T15:17:13.236Z,99561.34
2023-04-27T15:19:41.476Z,99547.06
2023-04-27T15:22:09.478Z,99541.59
2023-04-27T15:24:37.896Z,99545.16
2023-04-27T15:27:07.756Z,99545.03
2023-04-27T15:29:37.535Z,99543.63
2023-04-27T15:32:05.646Z,99548.56
2023-04-27T15:34:33.765Z,99546.94
2023-04-27T15:37:03.130Z,99550.16
2023-04-27T15:39:31.313Z,99553.59
2023-04-27T15:42:00.047Z,99545.91
2023-04-27T15:44:28.537Z,99549.00
2023-04-27T15:46:56.548Z,99545.91
2023-04-27T15:49:24.582Z,99548.25
2023-04-27T15:51:55.416Z,99545.75
2023-04-27T15:54:23.492Z,99547.47
2023-04-27T15:56:51.972Z,99544.59
2023-04-27T15:59:20.255Z,99542.16
2023-04-27T16:01:48.198Z,99535.91
2023-04-27T16:04:16.726Z,99539.62
2023-04-27T16:06:44.761Z,99547.00
2023-04-27T16:09:13.304Z,99541.72
2023-04-27T16:11:42.850Z,99546.59
2023-04-27T16:14:11.040Z,99542.72
2023-04-27T16:16:39.096Z,99544.88
2023-04-27T16:19:08.934Z,99554.03
2023-04-27T16:21:36.963Z,99554.94
2023-04-27T16:24:05.243Z,99555.91
2023-04-27T16:26:33.532Z,99550.97
2023-04-27T16:29:01.622Z,99550.03
2023-04-27T16:31:29.509Z,99554.38
2023-04-27T16:33:57.830Z,99556.09
2023-04-27T16:36:25.793Z,99562.12
2023-04-27T16:38:53.776Z,99558.69
2023-04-27T16:41:22.802Z,99557.28
2023-04-27T16:43:51.201Z,99565.03
2023-04-27T16:46:19.291Z,99564.13
2023-04-27T16:48:47.564Z,99563.34
2023-04-27T16:51:15.553Z,99559.63
2023-04-27T16:53:43.434Z,99563.88
2023-04-27T16:56:13.636Z,99563.53
2023-04-27T16:58:41.637Z,99574.16
2023-04-27T17:01:09.552Z,99568.47
2023-04-27T17:03:37.787Z,99571.44
2023-04-27T17:06:05.886Z,99568.66
2023-04-27T17:08:34.411Z,99570.47
2023-04-27T17:11:02.785Z,99575.16
2023-04-27T17:13:31.926Z,99581.47
2023-04-27T17:15:59.887Z,99578.19
2023-04-27T17:18:28.179Z,99579.38
2023-04-27T17:20:56.101Z,99577.19
2023-04-27T17:23:24.068Z,99586.91
2023-04-27T17:25:52.361Z,99582.78
2023-04-27T17:28:20.871Z,99587.56
2023-04-27T17:30:48.790Z,99586.09
2023-04-27T17:33:17.297Z,99588.87
2023-04-27T17:35:47.296Z,99589.53
2023-04-27T17:38:15.691Z,99590.37
2023-04-27T17:40:44.200Z,99598.59
2023-04-27T17:43:12.081Z,99604.72
2023-04-27T17:45:40.099Z,99604.81
2023-04-27T17:48:08.496Z,99600.47
2023-04-27T17:50:37.881Z,99604.75
2023-04-27T17:53:06.112Z,99602.00
2023-04-27T17:55:34.432Z,99610.59
2023-04-27T17:58:04.257Z,99609.28
2023-04-27T18:00:32.401Z,99610.19
2023-04-27T18:03:00.959Z,99610.16
2023-04-27T18:05:29.012Z,99613.03
2023-04-27T18:07:56.894Z,99617.63
2023-04-27T18:10:25.154Z,99624.16
2023-04-27T18:12:53.210Z,99633.31
2023-04-27T18:15:21.255Z,99627.00
2023-04-27T18:17:49.641Z,99624.75
2023-04-27T18:20:17.674Z,99631.62
2023-04-27T18:22:45.709Z,99637.28
2023-04-27T18:25:14.023Z,99637.19
2023-04-27T18:27:44.119Z,99636.56
2023-04-27T18:30:12.332Z,99638.97
2023-04-27T18:32:40.663Z,99644.94
2023-04-27T18:35:09.023Z,99643.44
2023-04-27T18:37:36.956Z,99643.53
2023-04-27T18:40:06.170Z,99646.31
2023-04-27T18:42:34.103Z,99654.97
2023-04-27T18:45:02.101Z,99651.91
2023-04-27T18:47:30.427Z,99656.19
2023-04-27T18:49:58.455Z,99663.22
2023-04-27T18:52:26.385Z,99673.63
2023-04-27T18:54:54.632Z,99667.94
2023-04-27T18:57:23.041Z,99667.34
2023-04-27T18:59:51.016Z,99665.41
2023-04-27T19:02:19.240Z,99671.66
2023-04-27T19:04:52.780Z,99673.66
2023-04-27T19:07:30.197Z,99674.34
2023-04-27T19:09:58.166Z,99683.66
2023-04-27T19:12:26.116Z,99686.34
2023-04-27T19:14:54.341Z,99690.59
2023-04-27T19:17:22.510Z,99682.81
2023-04-27T19:19:50.599Z,99685.81
2023-04-27T19:22:19.051Z,99687.06
2023-04-27T19:24:47.311Z,99687.50
2023-04-27T19:27:15.286Z,99689.09
2023-04-27T19:29:55.058Z,99690.13
2023-04-27T19:32:27.404Z,99698.31
2023-04-27T19:34:57.135Z,99697.13
2023-04-27T19:37:25.302Z,99695.87
2023-04-27T19:39:53.285Z,99694.66
2023-04-27T19:42:21.598Z,99700.94
2023-04-27T19:44:49.514Z,99704.78
2023-04-27T19:47:17.376Z,99695.66
2023-04-27T19:49:45.882Z,99690.00
2023-04-27T19:52:13.905Z,99698.78
2023-04-27T19:54:41.956Z,99693.47
2023-04-27T19:57:10.170Z,99696.00
2023-04-27T19:59:38.220Z,99698.72
2023-04-27T20:02:06.310Z,99697.34
2023-04-27T20:04:35.423Z,99703.09
2023-04-27T20:07:05.609Z,99693.88
2023-04-27T20:09:34.197Z,99697.88
2023-04-27T20:12:02.275Z,99695.25
2023-04-27T20:14:33.885Z,99695.66
2023-04-27T20:17:03.099Z,99696.75
2023-04-27T20:19:31.267Z,99703.31
2023-04-27T20:22:00.940Z,99698.53
2023-04-27T20:24:31.385Z,99695.16
2023-04-27T20:26:59.514Z,99700.88
2023-04-27T20:29:27.496Z,99698.06
2023-04-27T20:31:55.782Z,99698.47
2023-04-27T20:34:23.796Z,99694.41
2023-04-27T20:36:53.266Z,99694.72
2023-04-27T20:39:24.318Z,99695.25
2023-04-27T20:41:52.249Z,99697.00
2023-04-27T20:44:21.201Z,99697.75
2023-04-27T20:46:49.646Z,99701.75
2023-04-27T20:49:24.668Z,99702.63
2023-04-27T20:52:00.646Z,99696.97
2023-04-27T20:54:28.744Z,99701.53
2023-04-27T20:56:56.676Z,99702.75
2023-04-27T20:59:24.980Z,99706.28
2023-04-27T21:01:52.906Z,99706.28
2023-04-27T21:04:21.135Z,99700.03
2023-04-27T21:06:49.699Z,99705.88
2023-04-27T21:09:17.649Z,99713.69
2023-04-27T21:11:45.616Z,99708.84
2023-04-27T21:14:14.125Z,99709.66
2023-04-27T21:16:42.276Z,99717.19
2023-04-27T21:19:13.205Z,99712.25
2023-04-27T21:21:41.558Z,99708.44
2023-04-27T21:24:10.065Z,99714.13
2023-04-27T21:26:38.013Z,99721.97
2023-04-27T21:29:08.392Z,99719.97
2023-04-27T21:31:36.751Z,99720.84
2023-04-27T21:34:04.876Z,99726.37
2023-04-27T21:36:33.343Z,99728.31
2023-04-27T21:39:01.354Z,99733.13
2023-04-27T21:41:29.368Z,99721.78
2023-04-27T21:43:57.642Z,99728.38
2023-04-27T21:46:25.764Z,99731.19
2023-04-27T21:48:53.642Z,99727.28
2023-04-27T21:51:21.909Z,99737.38
2023-04-27T21:53:49.878Z,99730.50
2023-04-27T21:56:17.911Z,99725.28
2023-04-27T21:58:46.246Z,99740.19
2023-04-27T22:01:14.682Z,99742.00
2023-04-27T22:03:43.061Z,99738.72
2023-04-27T22:06:11.124Z,99741.22
2023-04-27T22:08:39.070Z,99741.53
2023-04-27T22:11:08.161Z,99746.00
2023-04-27T22:13:36.162Z,99732.50
2023-04-27T22:16:04.189Z,99734.63
2023-04-27T22:18:32.525Z,99743.88
2023-04-27T22:21:00.426Z,99737.88
2023-04-27T22:23:29.795Z,99744.31
2023-04-27T22:25:58.132Z,99750.13
2023-04-27T22:28:26.217Z,99743.03
2023-04-27T22:30:55.157Z,99745.12
2023-04-27T22:33:23.369Z,99746.72
2023-04-27T22:35:51.380Z,99750.84
2023-04-27T22:38:19.315Z,99749.72
2023-04-27T22:40:47.666Z,99756.69
2023-04-27T22:43:15.652Z,99762.06
2023-04-27T22:45:43.654Z,99754.72
2023-04-27T22:48:13.034Z,99755.06
2023-04-27T22:50:40.948Z,99760.84
2023-04-27T22:53:08.927Z,99762.25
2023-04-27T22:55:37.140Z,99765.75
2023-04-27T22:58:05.228Z,99764.13
2023-04-27T23:00:33.124Z,99757.44
2023-04-27T23:03:01.666Z,99760.78
2023-04-27T23:05:29.696Z,99764.34
2023-04-27T23:07:57.706Z,99760.53
2023-04-27T23:10:27.015Z,99762.56
2023-04-27T23:12:57.220Z,99757.19
2023-04-27T23:15:25.480Z,99763.44
2023-04-27T23:17:53.509Z,99762.34
2023-04-27T23:20:27.885Z,99758.25
2023-04-27T23:22:57.387Z,99760.97
2023-04-27T23:25:25.388Z,99756.53
2023-04-27T23:27:53.371Z,99759.91
2023-04-27T23:30:22.482Z,99756.63
2023-04-27T23:32:50.542Z,99748.31
2023-04-27T23:35:18.606Z,99759.56
2023-04-27T23:37:46.873Z,99760.59
2023-04-27T23:40:14.883Z,99751.59
2023-04-27T23:42:42.806Z,99748.28
2023-04-27T23:45:11.564Z,99750.69
2023-04-27T23:47:39.745Z,99743.47
2023-04-27T23:50:08.447Z,99755.44
2023-04-27T23:52:37.355Z,99748.87
2023-04-27T23:55:05.815Z,99752.94
2023-04-27T23:57:33.858Z,99757.16
